createdAt,value
2017-09-03T07:24:39.359Z,5.15
2017-09-03T07:25:11.891Z,5.00
2017-09-03T07:25:44.403Z,4.35
2017-09-03T07:26:16.953Z,5.12
2017-09-03T07:26:49.546Z,4.85
2017-09-03T07:27:22.067Z,4.43
2017-09-03T07:27:54.572Z,5.75
2017-09-03T07:28:27.086Z,4.93
2017-09-03T07:28:59.590Z,4.75
2017-09-03T07:29:32.128Z,5.30
2017-09-03T07:30:04.667Z,5.10
2017-09-03T07:30:37.178Z,5.65
2017-09-03T07:31:09.738Z,5.75
2017-09-03T07:31:42.329Z,5.20
2017-09-03T07:32:14.842Z,5.82
2017-09-03T07:32:47.367Z,5.47
2017-09-03T07:33:19.920Z,4.75
2017-09-03T07:33:52.425Z,5.53
2017-09-03T07:34:24.949Z,4.82
2017-09-03T07:34:57.482Z,4.95
2017-09-03T07:35:30.011Z,4.93
2017-09-03T07:36:02.540Z,4.40
2017-09-03T07:36:35.395Z,4.50
2017-09-03T07:37:07.943Z,4.78
2017-09-03T07:37:40.458Z,5.00
2017-09-03T07:38:13.047Z,4.87
2017-09-03T07:38:45.593Z,4.80
2017-09-03T07:39:18.193Z,4.78
2017-09-03T07:39:50.726Z,4.68
2017-09-03T07:40:23.249Z,4.90
2017-09-03T07:40:56.838Z,5.05
2017-09-03T07:41:29.803Z,5.30
2017-09-03T07:42:02.371Z,5.30
2017-09-03T07:42:34.950Z,5.32
2017-09-03T07:43:07.539Z,4.47
2017-09-03T07:43:40.059Z,4.65
2017-09-03T07:44:12.590Z,5.30
2017-09-03T07:44:45.131Z,4.40
2017-09-03T07:45:17.648Z,4.70
2017-09-03T07:45:51.057Z,4.00
2017-09-03T07:46:23.586Z,5.07
2017-09-03T07:46:56.108Z,4.60
2017-09-03T07:47:28.621Z,5.07
2017-09-03T07:48:01.171Z,4.62
2017-09-03T07:48:33.709Z,5.07
2017-09-03T07:49:06.251Z,4.30
2017-09-03T07:49:38.775Z,4.80
2017-09-03T07:50:11.297Z,4.80
2017-09-03T07:50:43.826Z,5.47
2017-09-03T07:51:16.332Z,4.25
2017-09-03T07:51:48.862Z,4.70
2017-09-03T07:52:21.370Z,4.10
2017-09-03T07:52:54.345Z,5.82
2017-09-03T07:53:26.916Z,5.15
2017-09-03T07:53:59.433Z,4.68
2017-09-03T07:54:32.924Z,4.25
2017-09-03T07:55:05.456Z,4.32
2017-09-03T07:55:37.977Z,4.28
2017-09-03T07:56:10.522Z,4.82
2017-09-03T07:56:43.044Z,3.97
2017-09-03T07:57:15.601Z,4.53
2017-09-03T07:57:48.137Z,5.15
2017-09-03T07:58:20.665Z,5.37
2017-09-03T07:58:53.350Z,5.80
2017-09-03T07:59:25.987Z,5.90
2017-09-03T07:59:58.798Z,5.53
2017-09-03T08:00:31.645Z,5.35
2017-09-03T08:01:04.257Z,5.03
2017-09-03T08:01:36.781Z,4.20
2017-09-03T08:02:09.308Z,4.65
2017-09-03T08:02:41.851Z,4.30
2017-09-03T08:03:14.386Z,4.82
2017-09-03T08:03:46.903Z,4.65
2017-09-03T08:04:19.428Z,4.53
2017-09-03T08:04:51.963Z,4.57
2017-09-03T08:05:24.834Z,12.43
2017-09-03T08:05:57.369Z,7.43
2017-09-03T08:06:29.915Z,5.70
2017-09-03T08:07:02.444Z,5.05
2017-09-03T08:07:34.967Z,4.53
2017-09-03T08:08:07.506Z,4.70
2017-09-03T08:08:40.013Z,4.93
2017-09-03T08:09:12.564Z,5.00
2017-09-03T08:09:45.090Z,4.37
2017-09-03T08:10:17.615Z,4.65
2017-09-03T08:10:50.173Z,4.70
2017-09-03T08:11:22.696Z,4.00
2017-09-03T08:11:55.360Z,4.12
2017-09-03T08:12:27.894Z,4.47
2017-09-03T08:13:00.424Z,4.60
2017-09-03T08:13:32.964Z,4.70
2017-09-03T08:14:05.510Z,4.70
2017-09-03T08:14:38.101Z,4.10
2017-09-03T08:15:10.708Z,5.25
2017-09-03T08:15:43.247Z,4.68
2017-09-03T08:16:18.535Z,4.60
2017-09-03T08:16:52.086Z,4.22
2017-09-03T08:33:40.027Z,3.70
2017-09-03T08:34:12.743Z,3.20
2017-09-03T08:34:45.324Z,4.25
2017-09-03T08:35:17.863Z,4.43
2017-09-03T08:35:50.388Z,14.80
2017-09-03T08:36:22.895Z,9.00
2017-09-03T08:36:55.533Z,7.47
2017-09-03T08:37:28.159Z,5.60
2017-09-03T08:38:00.725Z,5.20
2017-09-03T08:38:33.252Z,3.80
2017-09-03T08:39:05.794Z,3.97
2017-09-03T08:39:38.319Z,3.72
2017-09-03T08:40:10.854Z,3.65
2017-09-03T08:40:43.379Z,3.72
2017-09-03T08:41:15.915Z,3.78
2017-09-03T08:41:48.477Z,3.83
2017-09-03T08:42:22.348Z,4.45
2017-09-03T08:42:55.137Z,3.95
2017-09-03T08:43:28.714Z,3.45
2017-09-03T08:44:01.212Z,3.62
2017-09-03T08:44:33.759Z,3.42
2017-09-03T08:45:06.277Z,2.90
2017-09-03T08:45:38.860Z,3.47
2017-09-03T08:46:11.365Z,3.15
2017-09-03T08:46:44.050Z,3.03
2017-09-03T08:47:16.644Z,3.40
2017-09-03T08:47:49.254Z,2.90
2017-09-03T08:48:21.846Z,2.85
2017-09-03T08:48:54.375Z,2.97
2017-09-03T08:49:26.894Z,2.90
2017-09-03T08:49:59.621Z,2.72
2017-09-03T08:50:32.428Z,2.75
2017-09-03T08:51:05.048Z,2.70
2017-09-03T08:51:37.621Z,3.10
2017-09-03T08:52:10.160Z,2.90
2017-09-03T08:52:43.149Z,2.45
2017-09-03T08:53:15.698Z,2.65
2017-09-03T08:53:48.365Z,2.85
2017-09-03T08:54:20.972Z,2.85
2017-09-03T08:54:53.579Z,2.58
2017-09-03T08:55:26.151Z,2.90
2017-09-03T08:55:58.678Z,2.85
2017-09-03T08:56:31.197Z,2.62
2017-09-03T08:57:03.722Z,2.80
2017-09-03T08:57:36.319Z,2.97
2017-09-03T08:58:09.283Z,2.67
2017-09-03T08:58:41.895Z,2.87
2017-09-03T08:59:14.477Z,3.45
2017-09-03T08:59:47.005Z,2.95
2017-09-03T09:00:19.530Z,2.25
2017-09-03T09:00:52.108Z,2.60
2017-09-03T09:01:24.697Z,2.10
2017-09-03T09:01:57.225Z,2.00
2017-09-03T09:02:29.767Z,2.37
2017-09-03T09:03:02.275Z,2.20
2017-09-03T09:03:34.803Z,2.50
2017-09-03T09:04:07.328Z,2.60
2017-09-03T09:04:39.878Z,3.05
2017-09-03T09:05:12.971Z,3.10
2017-09-03T09:05:46.025Z,2.60
2017-09-03T09:06:18.717Z,2.50
2017-09-03T09:06:51.431Z,3.33
2017-09-03T09:07:24.152Z,2.83
2017-09-03T09:07:56.778Z,2.12
2017-09-03T09:08:29.331Z,2.45
2017-09-03T09:09:01.899Z,2.60
2017-09-03T09:09:34.400Z,2.87
2017-09-03T09:10:06.961Z,2.97
2017-09-03T09:10:39.695Z,2.42
2017-09-03T09:11:12.290Z,2.47
2017-09-03T09:11:44.941Z,2.50
2017-09-03T09:12:17.510Z,2.70
2017-09-03T09:12:50.069Z,2.60
2017-09-03T09:13:22.597Z,2.70
2017-09-03T09:13:55.140Z,3.40
2017-09-03T09:14:27.697Z,2.80
2017-09-03T09:15:00.444Z,3.10
2017-09-03T09:15:33.094Z,2.95
2017-09-03T09:16:05.652Z,3.08
2017-09-03T09:16:38.385Z,2.70
2017-09-03T09:17:10.934Z,2.55
2017-09-03T09:17:43.463Z,2.90
2017-09-03T09:18:16.057Z,2.50
2017-09-03T09:18:48.838Z,2.85
2017-09-03T09:19:21.439Z,2.67
2017-09-03T09:19:54.125Z,2.20
2017-09-03T09:20:26.658Z,2.50
2017-09-03T09:20:59.192Z,2.28
2017-09-03T09:21:31.703Z,2.10
2017-09-03T09:22:04.246Z,2.45
2017-09-03T09:22:36.980Z,2.62
2017-09-03T09:23:09.611Z,3.17
2017-09-03T09:23:42.235Z,2.85
2017-09-03T09:24:14.752Z,2.60
2017-09-03T09:24:47.299Z,2.30
2017-09-03T09:25:19.827Z,2.40
2017-09-03T09:25:52.486Z,2.20
2017-09-03T09:26:25.001Z,2.80
2017-09-03T09:26:57.528Z,2.35
2017-09-03T09:27:30.036Z,3.10
2017-09-03T09:28:02.984Z,2.47
2017-09-03T09:28:36.111Z,2.50
2017-09-03T09:29:08.641Z,2.72
2017-09-03T09:29:41.165Z,2.40
2017-09-03T09:30:13.708Z,2.40
2017-09-03T09:30:46.221Z,2.10
2017-09-03T09:31:18.730Z,2.10
2017-09-03T09:31:51.266Z,2.83
2017-09-03T09:32:23.798Z,2.10
2017-09-03T09:32:56.335Z,2.30
2017-09-03T09:33:28.886Z,2.20
2017-09-03T09:34:01.462Z,1.92
2017-09-03T09:34:33.990Z,1.95
2017-09-03T09:35:06.558Z,2.45
2017-09-03T09:35:39.074Z,2.05
2017-09-03T09:36:11.663Z,1.90
2017-09-03T09:36:44.172Z,2.28
2017-09-03T09:37:16.670Z,2.03
2017-09-03T09:37:49.211Z,2.83
2017-09-03T09:38:21.736Z,2.50
2017-09-03T09:38:54.280Z,2.40
2017-09-03T09:39:26.824Z,2.12
2017-09-03T09:39:59.357Z,2.50
2017-09-03T09:40:31.886Z,2.15
2017-09-03T09:41:04.417Z,2.72
2017-09-03T09:41:36.946Z,2.55
2017-09-03T09:42:09.475Z,2.45
2017-09-03T09:42:42.008Z,2.10
2017-09-03T09:43:14.578Z,2.40
2017-09-03T09:43:47.668Z,2.10
2017-09-03T09:44:20.238Z,2.33
2017-09-03T09:44:52.764Z,2.30
2017-09-03T09:45:25.296Z,2.42
2017-09-03T09:45:57.852Z,2.35
2017-09-03T09:46:30.415Z,2.47
2017-09-03T09:47:02.944Z,2.03
2017-09-03T09:47:35.458Z,1.87
2017-09-03T09:48:08.035Z,1.67
2017-09-03T09:48:40.562Z,2.12
2017-09-03T09:49:13.125Z,2.50
2017-09-03T09:49:45.671Z,2.30
2017-09-03T09:50:18.332Z,2.67
2017-09-03T09:50:50.848Z,1.90
2017-09-03T09:51:23.388Z,2.10
2017-09-03T09:51:55.908Z,2.22
2017-09-03T09:52:28.443Z,2.08
2017-09-03T09:53:00.969Z,2.12
2017-09-03T09:53:33.486Z,2.42
2017-09-03T09:54:06.034Z,1.98
2017-09-03T09:54:38.568Z,1.80
2017-09-03T09:55:11.120Z,1.87
2017-09-03T09:55:43.653Z,1.75
2017-09-03T09:56:26.973Z,2.25
2017-09-03T09:56:59.511Z,2.12
2017-09-03T09:57:32.056Z,1.90
2017-09-03T09:58:04.578Z,1.80
2017-09-03T09:58:37.120Z,1.67
2017-09-03T09:59:09.648Z,1.80
2017-09-03T09:59:42.174Z,1.70
2017-09-03T10:00:14.733Z,1.87
2017-09-03T10:00:48.025Z,2.05
2017-09-03T10:01:20.564Z,1.60
2017-09-03T10:01:53.073Z,2.35
2017-09-03T10:02:25.621Z,2.65
2017-09-03T10:02:58.140Z,2.20
2017-09-03T10:03:30.694Z,1.85
2017-09-03T10:04:03.259Z,1.87
2017-09-03T10:04:35.832Z,2.10
2017-09-03T10:05:08.420Z,2.08
2017-09-03T10:05:41.124Z,2.33
2017-09-03T10:06:13.680Z,2.20
2017-09-03T10:06:46.227Z,1.65
2017-09-03T10:07:18.858Z,2.10
2017-09-03T10:07:51.425Z,1.52
2017-09-03T10:08:23.961Z,2.20
2017-09-03T10:08:56.492Z,1.87
2017-09-03T10:09:29.048Z,1.50
2017-09-03T10:10:01.593Z,1.85
2017-09-03T10:10:34.122Z,1.83
2017-09-03T10:11:06.732Z,2.08
2017-09-03T10:11:39.317Z,1.87
2017-09-03T10:12:11.854Z,1.80
2017-09-03T10:12:44.715Z,1.55
2017-09-03T10:13:17.246Z,1.20
2017-09-03T10:13:49.796Z,1.70
2017-09-03T10:14:22.343Z,1.58
2017-09-03T10:14:55.645Z,1.87
2017-09-03T10:15:28.218Z,2.03
2017-09-03T10:16:00.744Z,1.60
2017-09-03T10:16:33.303Z,2.30
2017-09-03T10:17:05.840Z,2.22
2017-09-03T10:17:38.441Z,2.60
2017-09-03T10:18:10.974Z,2.53
2017-09-03T10:18:43.492Z,1.80
2017-09-03T10:19:16.032Z,1.55
2017-09-03T10:19:48.556Z,1.37
2017-09-03T10:20:21.110Z,1.67
2017-09-03T10:20:54.567Z,1.15
2017-09-03T10:21:27.098Z,1.70
2017-09-03T10:21:59.663Z,1.87
2017-09-03T10:22:32.182Z,1.70
2017-09-03T10:23:04.751Z,1.35
2017-09-03T10:23:37.289Z,1.62
2017-09-03T10:24:09.834Z,1.90
2017-09-03T10:24:42.347Z,1.73
2017-09-03T10:25:14.890Z,2.00
2017-09-03T10:25:47.418Z,1.90
2017-09-03T10:26:19.942Z,1.67
2017-09-03T10:26:52.474Z,2.10
2017-09-03T10:27:25.026Z,1.50
2017-09-03T10:27:57.602Z,1.58
2017-09-03T10:28:30.142Z,1.48
2017-09-03T10:29:02.658Z,1.30
2017-09-03T10:29:35.180Z,2.03
2017-09-03T10:30:07.711Z,1.67
2017-09-03T10:30:40.226Z,1.70
2017-09-03T10:31:12.777Z,1.50
2017-09-03T10:31:45.316Z,2.00
2017-09-03T10:32:17.874Z,2.00
2017-09-03T10:32:50.414Z,1.62
2017-09-03T10:33:22.943Z,1.50
2017-09-03T10:33:55.468Z,1.45
2017-09-03T10:34:27.991Z,1.50
2017-09-03T10:35:00.517Z,1.45
2017-09-03T10:35:33.047Z,1.60
2017-09-03T10:36:05.595Z,2.03
2017-09-03T10:36:38.123Z,1.30
2017-09-03T10:37:10.724Z,1.60
2017-09-03T10:37:43.250Z,1.50
2017-09-03T10:38:15.811Z,1.90
2017-09-03T10:38:48.339Z,1.85
2017-09-03T10:39:20.857Z,2.30
2017-09-03T10:39:53.371Z,2.60
2017-09-03T10:40:25.897Z,2.30
2017-09-03T10:40:58.430Z,2.15
2017-09-03T10:41:30.965Z,2.05
2017-09-03T10:42:03.480Z,2.10
2017-09-03T10:42:35.999Z,1.77
2017-09-03T10:43:08.570Z,1.65
2017-09-03T10:43:41.128Z,1.52
2017-09-03T10:44:13.677Z,1.83
2017-09-03T10:44:47.031Z,2.62
2017-09-03T10:45:19.550Z,1.85
2017-09-03T10:45:52.098Z,2.25
2017-09-03T10:46:24.656Z,1.70
2017-09-03T10:46:57.178Z,1.60
2017-09-03T10:47:29.711Z,2.10
2017-09-03T10:48:02.247Z,1.62
2017-09-03T10:48:34.774Z,1.83
2017-09-03T10:49:07.907Z,1.92
2017-09-03T10:49:40.514Z,1.60
2017-09-03T10:50:13.115Z,1.62
2017-09-03T10:50:45.628Z,1.62
2017-09-03T10:51:18.263Z,1.87
2017-09-03T10:51:50.821Z,2.20
2017-09-03T10:52:23.346Z,2.15
2017-09-03T10:52:55.930Z,1.90
2017-09-03T10:53:28.468Z,2.55
2017-09-03T10:54:01.026Z,1.90
2017-09-03T10:54:34.373Z,1.77
2017-09-03T10:55:06.895Z,2.17
2017-09-03T10:55:39.463Z,1.37
2017-09-03T10:56:11.988Z,2.20
2017-09-03T10:56:44.524Z,1.50
2017-09-03T10:57:17.067Z,1.62
2017-09-03T10:57:49.620Z,1.87
2017-09-03T10:58:22.169Z,1.80
2017-09-03T10:58:54.721Z,1.50
2017-09-03T10:59:27.959Z,1.70
2017-09-03T11:00:00.526Z,1.40
2017-09-03T11:00:33.054Z,1.80
2017-09-03T11:01:05.588Z,2.00
2017-09-03T11:01:38.114Z,1.60
2017-09-03T11:02:10.641Z,1.55
2017-09-03T11:02:43.148Z,2.15
2017-09-03T11:03:15.673Z,2.00
2017-09-03T11:03:48.233Z,1.70
2017-09-03T11:04:20.799Z,1.80
2017-09-03T11:04:53.322Z,1.65
2017-09-03T11:05:25.913Z,2.10
2017-09-03T11:05:59.208Z,1.40
2017-09-03T11:06:31.728Z,1.55
2017-09-03T11:07:04.256Z,1.62
2017-09-03T11:07:36.787Z,1.60
2017-09-03T11:08:09.320Z,1.75
2017-09-03T11:08:41.861Z,1.70
2017-09-03T11:09:14.390Z,1.90
2017-09-03T11:09:46.905Z,1.90
2017-09-03T11:10:19.430Z,1.80
2017-09-03T11:10:51.972Z,1.58
2017-09-03T11:11:24.490Z,1.85
2017-09-03T11:11:57.057Z,1.75
2017-09-03T11:12:29.609Z,2.20
2017-09-03T11:13:02.167Z,2.30
2017-09-03T11:13:34.691Z,1.70
2017-09-03T11:14:07.209Z,2.12
2017-09-03T11:14:39.726Z,1.85
2017-09-03T11:15:12.238Z,2.10
2017-09-03T11:15:44.753Z,1.70
2017-09-03T11:16:17.286Z,2.40
2017-09-03T11:16:49.808Z,2.45
2017-09-03T11:17:22.337Z,3.10
2017-09-03T11:17:54.856Z,2.83
2017-09-03T11:18:27.384Z,2.92
2017-09-03T11:18:59.897Z,1.95
2017-09-03T11:19:32.439Z,2.20
2017-09-03T11:20:05.715Z,2.50
2017-09-03T11:20:38.237Z,1.75
2017-09-03T11:21:10.773Z,1.70
2017-09-03T11:21:43.302Z,1.75
2017-09-03T11:22:15.849Z,1.65
2017-09-03T11:22:48.365Z,1.80
2017-09-03T11:23:20.916Z,1.87
2017-09-03T11:23:53.471Z,1.85
2017-09-03T11:24:25.994Z,2.03
2017-09-03T11:24:58.568Z,1.77
2017-09-03T11:25:31.075Z,1.87
2017-09-03T11:26:03.599Z,1.70
2017-09-03T11:26:36.127Z,1.62
2017-09-03T11:27:09.431Z,1.80
2017-09-03T11:27:41.951Z,1.60
2017-09-03T11:28:14.470Z,1.52
2017-09-03T11:28:46.999Z,1.40
2017-09-03T11:29:19.618Z,1.60
2017-09-03T11:29:52.196Z,1.80
2017-09-03T11:30:24.770Z,1.73
2017-09-03T11:30:57.305Z,1.62
2017-09-03T11:31:29.836Z,1.70
2017-09-03T11:32:02.348Z,1.52
2017-09-03T11:32:34.898Z,1.50
2017-09-03T11:33:07.487Z,1.40
2017-09-03T11:33:41.109Z,1.80
2017-09-03T11:34:13.617Z,1.70
2017-09-03T11:34:46.143Z,1.95
2017-09-03T11:35:18.666Z,1.50
2017-09-03T11:35:51.491Z,1.60
2017-09-03T11:36:24.009Z,1.60
2017-09-03T11:36:56.687Z,1.60
2017-09-03T11:37:29.199Z,1.70
2017-09-03T11:38:01.740Z,1.92
2017-09-03T11:38:34.308Z,1.80
2017-09-03T11:39:06.850Z,2.60
2017-09-03T11:39:39.379Z,2.40
2017-09-03T11:40:11.943Z,2.33
2017-09-03T11:40:44.472Z,2.00
2017-09-03T11:41:17.021Z,2.00
2017-09-03T11:41:49.545Z,2.03
2017-09-03T11:42:22.073Z,2.05
2017-09-03T11:42:54.595Z,1.77
2017-09-03T11:43:27.347Z,1.73
2017-09-03T11:43:59.849Z,1.85
2017-09-03T11:44:32.437Z,1.75
2017-09-03T11:45:04.977Z,1.60
2017-09-03T11:45:37.519Z,1.70
2017-09-03T11:46:10.046Z,1.83
2017-09-03T11:46:42.581Z,1.80
2017-09-03T11:47:15.104Z,1.70
2017-09-03T11:47:47.632Z,1.50
2017-09-03T11:48:20.146Z,1.58
2017-09-03T11:48:52.718Z,1.50
2017-09-03T11:49:25.272Z,2.03
2017-09-03T11:49:57.817Z,1.85
2017-09-03T11:50:30.389Z,1.35
2017-09-03T11:51:02.912Z,1.42
2017-09-03T11:51:35.575Z,1.77
2017-09-03T11:52:08.177Z,1.75
2017-09-03T11:52:40.715Z,1.58
2017-09-03T11:53:13.238Z,1.60
2017-09-03T11:53:45.811Z,1.67
2017-09-03T11:54:18.412Z,1.92
2017-09-03T11:54:50.939Z,1.42
2017-09-03T11:55:23.459Z,1.40
2017-09-03T11:55:56.263Z,1.48
2017-09-03T11:56:28.788Z,1.40
2017-09-03T11:57:01.484Z,1.75
2017-09-03T11:57:34.009Z,1.20
2017-09-03T11:58:06.546Z,1.80
2017-09-03T11:58:39.071Z,1.65
2017-09-03T11:59:11.626Z,1.70
2017-09-03T11:59:44.180Z,1.80
2017-09-03T12:00:16.735Z,2.03
2017-09-03T12:00:49.263Z,1.70
2017-09-03T12:01:21.780Z,1.70
2017-09-03T12:01:55.086Z,1.85
2017-09-03T12:02:27.720Z,1.60
2017-09-03T12:03:00.263Z,1.90
2017-09-03T12:03:32.786Z,1.75
2017-09-03T12:04:05.319Z,1.73
2017-09-03T12:04:37.856Z,1.60
2017-09-03T12:05:10.406Z,1.98
2017-09-03T12:05:42.943Z,2.20
2017-09-03T12:06:15.482Z,2.42
2017-09-03T12:06:48.303Z,2.03
2017-09-03T12:07:20.848Z,1.70
2017-09-03T12:07:53.384Z,1.58
2017-09-03T12:08:25.902Z,1.50
2017-09-03T12:08:58.458Z,1.90
2017-09-03T12:09:30.984Z,1.30
2017-09-03T12:10:03.508Z,1.65
2017-09-03T12:10:36.040Z,1.60
2017-09-03T12:11:08.582Z,1.48
2017-09-03T12:11:41.122Z,1.85
2017-09-03T12:12:13.647Z,1.35
2017-09-03T12:12:46.188Z,1.48
2017-09-03T12:13:18.756Z,1.77
2017-09-03T12:13:51.291Z,1.60
2017-09-03T12:14:23.824Z,1.70
2017-09-03T12:14:56.390Z,1.48
2017-09-03T12:15:28.915Z,1.55
2017-09-03T12:16:01.503Z,1.50
2017-09-03T12:16:34.025Z,2.00
2017-09-03T12:17:06.559Z,2.10
2017-09-03T12:17:39.184Z,1.42
2017-09-03T12:18:11.751Z,1.50
2017-09-03T12:18:44.291Z,1.40
2017-09-03T12:19:16.809Z,1.58
2017-09-03T12:19:49.322Z,1.80
2017-09-03T12:20:21.870Z,1.80
2017-09-03T12:20:54.383Z,1.90
2017-09-03T12:21:26.935Z,1.70
2017-09-03T12:21:59.478Z,1.20
2017-09-03T12:22:32.033Z,1.50
2017-09-03T12:23:04.587Z,1.70
2017-09-03T12:23:37.136Z,2.03
2017-09-03T12:24:09.659Z,1.52
2017-09-03T12:24:42.279Z,1.80
2017-09-03T12:25:14.822Z,1.95
2017-09-03T12:25:47.392Z,1.70
2017-09-03T12:26:19.950Z,1.50
2017-09-03T12:26:52.503Z,1.30
2017-09-03T12:27:25.911Z,1.90
2017-09-03T12:27:58.442Z,1.90
2017-09-03T12:28:30.954Z,1.48
2017-09-03T12:29:03.754Z,1.40
2017-09-03T12:29:36.307Z,1.75
2017-09-03T12:30:08.844Z,1.30
2017-09-03T12:30:41.397Z,1.58
2017-09-03T12:31:13.905Z,1.50
2017-09-03T12:31:46.444Z,1.40
2017-09-03T12:32:18.996Z,2.00
2017-09-03T12:32:52.474Z,2.75
2017-09-03T12:33:25.074Z,2.80
2017-09-03T12:33:57.597Z,2.33
2017-09-03T12:34:30.124Z,2.20
2017-09-03T12:35:02.822Z,1.92
2017-09-03T12:35:35.346Z,1.40
2017-09-03T12:36:07.862Z,1.83
2017-09-03T12:36:44.020Z,2.20
2017-09-03T12:37:16.556Z,1.80
2017-09-03T12:37:49.099Z,1.58
2017-09-03T12:38:21.616Z,1.30
2017-09-03T12:38:54.164Z,1.60
2017-09-03T12:39:26.713Z,1.65
2017-09-03T12:39:59.255Z,2.03
2017-09-03T12:40:31.787Z,1.70
2017-09-03T12:41:04.392Z,1.62
2017-09-03T12:41:36.929Z,1.85
2017-09-03T12:42:09.462Z,1.50
2017-09-03T12:42:41.986Z,1.70
2017-09-03T12:43:14.508Z,1.73
2017-09-03T12:43:47.120Z,1.50
2017-09-03T12:44:19.651Z,1.65
2017-09-03T12:44:52.174Z,1.90
2017-09-03T12:45:24.848Z,1.70
2017-09-03T12:45:57.367Z,2.30
2017-09-03T12:46:29.924Z,1.45
2017-09-03T12:47:02.793Z,1.70
2017-09-03T13:00:35.420Z,1.67
2017-09-03T13:01:07.974Z,1.62
2017-09-03T13:01:42.471Z,1.55
2017-09-03T13:02:14.998Z,1.92
2017-09-03T13:02:47.580Z,1.75
2017-09-03T13:03:20.947Z,1.70
2017-09-03T13:03:53.498Z,1.50
2017-09-03T13:04:26.038Z,1.55
2017-09-03T13:04:59.495Z,3.60
2017-09-03T13:05:32.096Z,2.85
2017-09-03T13:06:04.693Z,1.70
2017-09-03T13:06:37.235Z,1.45
2017-09-03T13:07:09.762Z,1.40
2017-09-03T13:07:42.273Z,1.45
2017-09-03T13:08:14.800Z,1.70
2017-09-03T13:08:47.341Z,1.87
2017-09-03T13:09:19.870Z,1.55
2017-09-03T13:09:52.388Z,1.95
2017-09-03T13:10:24.916Z,1.55
2017-09-03T13:10:57.448Z,1.70
2017-09-03T13:11:29.979Z,1.90
2017-09-03T13:12:02.515Z,1.60
2017-09-03T13:12:35.029Z,1.98
2017-09-03T13:13:07.548Z,1.30
2017-09-03T13:13:40.081Z,1.83
2017-09-03T13:14:12.631Z,1.70
2017-09-03T13:14:45.145Z,1.52
2017-09-03T13:15:17.684Z,1.85
2017-09-03T13:15:50.212Z,1.65
2017-09-03T13:16:22.759Z,1.30
2017-09-03T13:16:55.304Z,1.65
2017-09-03T13:17:27.845Z,1.70
2017-09-03T13:18:00.381Z,1.65
2017-09-03T13:18:33.018Z,1.80
2017-09-03T13:19:05.533Z,1.90
2017-09-03T13:19:38.077Z,2.03
2017-09-03T13:20:10.608Z,1.58
2017-09-03T13:20:43.125Z,2.12
2017-09-03T13:21:15.699Z,3.00
2017-09-03T13:21:48.476Z,3.12
2017-09-03T13:22:21.020Z,1.58
2017-09-03T13:22:53.552Z,1.70
2017-09-03T13:23:26.079Z,1.67
2017-09-03T13:23:58.602Z,1.80
2017-09-03T13:24:31.120Z,2.10
2017-09-03T13:25:03.636Z,1.70
2017-09-03T13:25:36.218Z,1.83
2017-09-03T13:26:08.755Z,2.17
2017-09-03T13:26:42.140Z,1.75
2017-09-03T13:27:15.521Z,1.50
2017-09-03T13:27:48.399Z,1.35
2017-09-03T13:28:21.762Z,1.70
2017-09-03T13:28:55.486Z,1.95
2017-09-03T13:29:28.023Z,1.90
2017-09-03T13:30:00.623Z,1.90
2017-09-03T13:30:33.157Z,1.62
2017-09-03T13:31:05.690Z,1.95
2017-09-03T13:31:38.460Z,1.70
2017-09-03T13:32:11.038Z,1.80
2017-09-03T13:32:43.561Z,2.10
2017-09-03T13:33:16.082Z,2.10
2017-09-03T13:33:48.600Z,2.10
2017-09-03T13:34:21.126Z,1.87
2017-09-03T13:34:53.639Z,1.70
2017-09-03T13:35:26.165Z,2.12
2017-09-03T13:35:58.697Z,2.08
2017-09-03T13:36:31.215Z,1.73
2017-09-03T13:37:03.907Z,1.98
2017-09-03T13:37:37.253Z,2.15
2017-09-03T13:38:09.802Z,2.50
2017-09-03T13:38:42.355Z,2.35
2017-09-03T13:39:14.865Z,2.33
2017-09-03T13:39:48.126Z,1.80
2017-09-03T13:40:20.650Z,2.00
2017-09-03T13:40:54.057Z,1.65
2017-09-03T13:41:26.572Z,1.75
2017-09-03T13:41:59.102Z,2.25
2017-09-03T13:42:31.610Z,2.45
2017-09-03T13:43:04.125Z,2.40
2017-09-03T13:43:36.650Z,1.70
2017-09-03T13:44:09.195Z,2.10
2017-09-03T13:44:41.749Z,2.62
2017-09-03T13:45:14.314Z,4.12
2017-09-03T13:45:46.864Z,2.10
2017-09-03T13:46:19.388Z,1.83
2017-09-03T13:46:52.175Z,1.70
2017-09-03T13:47:24.704Z,1.62
2017-09-03T13:47:57.236Z,1.65
2017-09-03T13:48:30.499Z,1.85
2017-09-03T13:49:03.047Z,1.75
2017-09-03T13:49:35.580Z,1.60
2017-09-03T13:50:08.116Z,2.60
2017-09-03T13:50:40.636Z,2.30
2017-09-03T13:51:13.173Z,2.15
2017-09-03T13:51:45.716Z,2.33
2017-09-03T13:52:18.245Z,1.90
2017-09-03T13:52:50.771Z,1.60
2017-09-03T13:53:23.342Z,1.87
2017-09-03T13:53:55.877Z,1.92
2017-09-03T13:54:28.435Z,1.83
2017-09-03T13:55:01.171Z,1.60
2017-09-03T13:55:33.701Z,1.70
2017-09-03T13:56:06.243Z,2.22
2017-09-03T13:56:38.767Z,1.80
2017-09-03T13:57:11.306Z,1.80
2017-09-03T13:57:43.840Z,1.85
2017-09-03T13:58:16.375Z,1.85
2017-09-03T13:58:48.888Z,1.87
2017-09-03T13:59:21.455Z,1.73
2017-09-03T13:59:53.998Z,1.60
2017-09-03T14:00:26.549Z,1.45
2017-09-03T14:00:59.060Z,1.77
2017-09-03T14:01:31.587Z,1.77
2017-09-03T14:02:04.158Z,1.70
2017-09-03T14:02:36.683Z,1.70
2017-09-03T14:03:09.210Z,1.60
2017-09-03T14:03:41.761Z,1.75
2017-09-03T14:04:15.050Z,1.92
2017-09-03T14:04:47.608Z,1.50
2017-09-03T14:05:20.156Z,1.55
2017-09-03T14:05:52.679Z,1.77
2017-09-03T14:06:25.229Z,1.42
2017-09-03T14:06:57.770Z,3.42
2017-09-03T14:07:30.301Z,2.35
2017-09-03T14:08:02.827Z,2.42
2017-09-03T14:08:35.336Z,2.37
2017-09-03T14:09:07.858Z,3.85
2017-09-03T14:09:40.399Z,6.95
2017-09-03T14:10:12.934Z,2.80
2017-09-03T14:10:45.454Z,1.67
2017-09-03T14:11:18.014Z,2.37
2017-09-03T14:11:51.322Z,2.08
2017-09-03T14:12:23.855Z,2.00
2017-09-03T14:12:56.407Z,1.50
2017-09-03T14:13:29.198Z,1.87
2017-09-03T14:14:01.724Z,2.20
2017-09-03T14:14:34.271Z,1.87
2017-09-03T14:15:06.845Z,1.70
2017-09-03T14:15:39.391Z,2.00
2017-09-03T14:16:11.958Z,1.83
2017-09-03T14:16:44.977Z,2.03
2017-09-03T14:17:17.551Z,2.20
2017-09-03T14:17:50.248Z,1.80
2017-09-03T14:18:22.789Z,2.12
2017-09-03T14:18:55.324Z,2.20
2017-09-03T14:19:27.896Z,2.25
2017-09-03T14:20:01.321Z,1.90
2017-09-03T14:20:33.868Z,2.05
2017-09-03T14:21:06.400Z,4.45
2017-09-03T14:21:38.924Z,2.37
2017-09-03T14:22:11.467Z,2.05
2017-09-03T14:22:44.063Z,2.20
2017-09-03T14:23:16.574Z,1.80
2017-09-03T14:23:49.107Z,1.70
2017-09-03T14:24:21.642Z,2.20
2017-09-03T14:24:54.162Z,1.90
2017-09-03T14:25:26.724Z,2.03
2017-09-03T14:25:59.255Z,1.83
2017-09-03T14:26:31.780Z,2.05
2017-09-03T14:27:04.305Z,1.98
2017-09-03T14:27:36.879Z,2.25
2017-09-03T14:28:09.441Z,2.30
2017-09-03T14:28:41.977Z,2.25
2017-09-03T14:29:15.145Z,1.83
2017-09-03T14:29:47.658Z,1.80
2017-09-03T14:30:20.182Z,1.80
2017-09-03T14:30:52.729Z,2.00
2017-09-03T14:31:25.271Z,2.10
2017-09-03T14:31:57.809Z,1.75
2017-09-03T14:32:30.782Z,1.80
2017-09-03T14:33:03.320Z,1.85
2017-09-03T14:33:35.852Z,2.15
2017-09-03T14:34:08.400Z,2.10
2017-09-03T14:34:40.921Z,1.60
2017-09-03T14:35:13.470Z,1.92
2017-09-03T14:35:46.015Z,1.73
2017-09-03T14:36:18.537Z,1.73
2017-09-03T14:36:51.096Z,2.22
2017-09-03T14:37:23.629Z,2.58
2017-09-03T14:37:56.146Z,2.37
2017-09-03T14:38:28.705Z,2.25
2017-09-03T14:39:01.242Z,2.95
2017-09-03T14:39:33.809Z,2.40
2017-09-03T14:40:07.251Z,1.95
2017-09-03T14:40:39.816Z,2.45
2017-09-03T14:41:12.513Z,2.10
2017-09-03T14:41:45.023Z,2.80
2017-09-03T14:42:18.328Z,2.20
2017-09-03T14:42:51.266Z,2.00
2017-09-03T14:43:24.314Z,1.65
2017-09-03T14:43:56.969Z,2.50
2017-09-03T14:44:30.134Z,2.55
2017-09-03T14:45:03.523Z,4.35
2017-09-03T14:45:36.685Z,4.40
2017-09-03T14:46:09.449Z,2.97
2017-09-03T14:46:42.100Z,2.17
2017-09-03T14:47:14.666Z,2.30
2017-09-03T14:47:47.241Z,1.95
2017-09-03T14:48:19.828Z,2.65
2017-09-03T14:48:52.352Z,2.25
2017-09-03T14:49:24.930Z,1.70
2017-09-03T14:49:57.680Z,1.80
2017-09-03T14:50:30.383Z,1.90
2017-09-03T14:51:02.964Z,1.95
2017-09-03T14:51:35.493Z,1.98
2017-09-03T14:52:08.079Z,1.60
2017-09-03T14:52:40.603Z,1.42
2017-09-03T14:53:13.154Z,1.50
2017-09-03T14:53:45.839Z,1.45
2017-09-03T14:54:18.510Z,1.40
2017-09-03T14:54:51.092Z,1.80
2017-09-03T14:55:23.687Z,1.80
2017-09-03T14:55:56.235Z,1.65
2017-09-03T14:56:28.772Z,1.40
2017-09-03T14:57:01.331Z,1.42
2017-09-03T14:57:33.994Z,1.65
2017-09-03T14:58:06.807Z,1.60
2017-09-03T14:58:39.341Z,1.55
2017-09-03T14:59:11.936Z,1.23
2017-09-03T14:59:44.461Z,1.50
2017-09-03T15:00:17.024Z,1.85
2017-09-03T15:00:49.551Z,1.77
2017-09-03T15:01:22.068Z,1.55
2017-09-03T15:01:54.599Z,1.50
2017-09-03T15:02:27.125Z,1.48
2017-09-03T15:02:59.661Z,1.60
2017-09-03T15:03:32.194Z,1.50
2017-09-03T15:04:04.717Z,1.40
2017-09-03T15:04:37.256Z,1.40
2017-09-03T15:05:10.282Z,1.80
2017-09-03T15:05:43.432Z,1.85
2017-09-03T15:06:16.005Z,2.20
2017-09-03T15:06:48.610Z,1.30
2017-09-03T15:07:21.525Z,1.30
2017-09-03T15:07:54.089Z,1.60